Time;durP1;ratioP1;P1;durP2;ratioP2;P2;SDS_P1;SDS_P2;PMS_P1;PMS_P2;Temp;Humidity;BMP_temperature;BMP_pressure;BME280_temperature;BME280_humidity;BME280_pressure;Samples;Min_cycle;Max_cycle;Signal;HPM_P1;HPM_P2
2023/04/17 00:02:18;;;;;;;29.10;19.27;;;;;;;;;;5091471;28;20034;-68
2023/04/17 00:04:45;;;;;;;27.10;19.50;;;;;;;;;;5093528;28;20383;-68
2023/04/17 00:07:11;;;;;;;26.17;19.10;;;;;;;;;;5077655;28;20415;-68
2023/04/17 00:09:37;;;;;;;27.85;18.85;;;;;;;;;;5094442;28;20035;-68
2023/04/17 00:12:03;;;;;;;26.92;19.27;;;;;;;;;;5090701;28;20070;-68
2023/04/17 00:14:29;;;;;;;26.73;18.50;;;;;;;;;;5091943;28;20024;-68
2023/04/17 00:16:55;;;;;;;26.88;19.73;;;;;;;;;;5090660;28;20107;-68
2023/04/17 00:19:21;;;;;;;25.25;18.35;;;;;;;;;;5091904;28;20035;-68
2023/04/17 00:21:47;;;;;;;27.15;19.75;;;;;;;;;;5091440;28;20017;-68
2023/04/17 00:24:13;;;;;;;29.45;18.92;;;;;;;;;;5090862;28;20031;-68
2023/04/17 00:26:39;;;;;;;25.63;18.30;;;;;;;;;;5091430;28;20423;-68
2023/04/17 00:29:05;;;;;;;26.98;18.42;;;;;;;;;;5092598;28;20024;-68
2023/04/17 00:31:31;;;;;;;30.70;19.85;;;;;;;;;;5091052;28;20020;-68
2023/04/17 00:34:00;;;;;;;28.75;19.42;;;;;;;;;;5090867;28;20380;-68
2023/04/17 00:36:26;;;;;;;29.02;20.27;;;;;;;;;;5094287;28;20028;-68
2023/04/17 00:38:52;;;;;;;31.83;20.08;;;;;;;;;;5090592;28;20048;-70
2023/04/17 00:41:18;;;;;;;26.20;19.25;;;;;;;;;;5073183;28;20024;-67
2023/04/17 00:43:44;;;;;;;28.00;19.35;;;;;;;;;;5085549;28;20031;-68
2023/04/17 00:46:11;;;;;;;29.75;20.35;;;;;;;;;;5093722;28;20031;-68
2023/04/17 00:48:39;;;;;;;26.98;19.75;;;;;;;;;;5090675;28;20095;-68
2023/04/17 00:51:05;;;;;;;28.00;20.38;;;;;;;;;;5090302;28;20124;-68
2023/04/17 00:53:32;;;;;;;27.17;19.15;;;;;;;;;;5092883;28;20039;-68
2023/04/17 00:55:59;;;;;;;28.80;19.05;;;;;;;;;;5094853;28;20074;-68
2023/04/17 00:58:26;;;;;;;26.92;19.30;;;;;;;;;;5095675;28;20028;-69
2023/04/17 01:00:52;;;;;;;29.20;20.35;;;;;;;;;;5094521;28;20024;-70
2023/04/17 01:03:18;;;;;;;29.23;19.42;;;;;;;;;;5097553;28;20036;-68
2023/04/17 01:05:47;;;;;;;30.33;20.27;;;;;;;;;;5106250;28;20471;-68
2023/04/17 01:08:13;;;;;;;31.73;19.90;;;;;;;;;;5082486;28;20028;-68
2023/04/17 01:10:39;;;;;;;28.65;19.08;;;;;;;;;;5092071;28;20028;-68
2023/04/17 01:13:06;;;;;;;27.80;20.17;;;;;;;;;;5092959;28;20035;-68
2023/04/17 01:15:33;;;;;;;26.20;18.85;;;;;;;;;;5094945;28;20032;-68
2023/04/17 01:17:59;;;;;;;27.92;19.00;;;;;;;;;;5093567;28;20442;-68
2023/04/17 01:20:29;;;;;;;29.92;20.75;;;;;;;;;;5096928;28;20032;-68
2023/04/17 01:22:56;;;;;;;27.45;19.90;;;;;;;;;;5093846;28;20078;-69
2023/04/17 01:25:22;;;;;;;30.40;21.38;;;;;;;;;;5095201;28;20031;-68
2023/04/17 01:27:48;;;;;;;28.17;19.67;;;;;;;;;;5094194;28;20027;-70
2023/04/17 01:30:14;;;;;;;28.35;20.75;;;;;;;;;;5076325;28;20020;-68
2023/04/17 01:32:41;;;;;;;27.35;20.38;;;;;;;;;;5093180;28;20173;-68
2023/04/17 01:35:07;;;;;;;27.25;19.50;;;;;;;;;;5094343;28;20028;-68
2023/04/17 01:37:33;;;;;;;29.52;20.10;;;;;;;;;;5095791;28;20127;-68
2023/04/17 01:39:59;;;;;;;26.23;18.90;;;;;;;;;;5094467;28;20099;-68
2023/04/17 01:42:25;;;;;;;27.88;19.35;;;;;;;;;;5094207;28;20027;-68
2023/04/17 01:44:52;;;;;;;28.50;18.52;;;;;;;;;;5094073;28;20399;-70
2023/04/17 01:47:17;;;;;;;29.08;19.25;;;;;;;;;;5093871;28;21217;-68
2023/04/17 01:49:44;;;;;;;32.70;19.13;;;;;;;;;;5094587;28;20024;-68
2023/04/17 01:52:10;;;;;;;26.35;19.10;;;;;;;;;;5087439;28;20500;-68
2023/04/17 01:54:35;;;;;;;26.55;18.88;;;;;;;;;;5095855;28;20055;-68
2023/04/17 01:57:01;;;;;;;30.20;21.08;;;;;;;;;;5093620;28;20107;-68
2023/04/17 01:59:27;;;;;;;28.98;19.75;;;;;;;;;;5081770;28;20035;-68
2023/04/17 02:01:55;;;;;;;29.58;20.40;;;;;;;;;;5091819;28;20547;-69
2023/04/17 02:04:21;;;;;;;32.97;20.75;;;;;;;;;;5100667;28;20047;-68
2023/04/17 02:06:47;;;;;;;26.55;18.27;;;;;;;;;;5093536;28;20035;-67
2023/04/17 02:09:13;;;;;;;27.83;19.70;;;;;;;;;;5088019;28;20028;-68
2023/04/17 02:11:39;;;;;;;28.35;20.58;;;;;;;;;;5094728;28;20526;-68
2023/04/17 02:14:05;;;;;;;27.52;19.58;;;;;;;;;;5075190;28;20040;-68
2023/04/17 02:16:31;;;;;;;27.90;19.50;;;;;;;;;;5093695;28;20380;-68
2023/04/17 02:18:57;;;;;;;28.88;20.65;;;;;;;;;;5093069;28;20035;-68
2023/04/17 02:21:25;;;;;;;29.75;21.15;;;;;;;;;;5093655;28;20016;-68
2023/04/17 02:23:52;;;;;;;31.60;20.75;;;;;;;;;;5093476;28;20381;-71
2023/04/17 02:26:18;;;;;;;29.70;20.52;;;;;;;;;;5093235;28;20021;-68
2023/04/17 02:28:44;;;;;;;29.55;20.80;;;;;;;;;;5093386;28;20015;-68
2023/04/17 02:31:11;;;;;;;32.67;20.73;;;;;;;;;;5092896;28;20024;-68
2023/04/17 02:33:37;;;;;;;27.45;20.55;;;;;;;;;;5100819;28;20032;-68
2023/04/17 02:36:04;;;;;;;29.55;20.95;;;;;;;;;;5092498;28;20111;-68
2023/04/17 02:38:30;;;;;;;29.35;21.05;;;;;;;;;;5093095;28;20075;-68
2023/04/17 02:40:57;;;;;;;30.65;20.70;;;;;;;;;;5092347;28;20085;-69
2023/04/17 02:43:23;;;;;;;30.63;20.75;;;;;;;;;;5093469;28;20050;-68
2023/04/17 02:45:49;;;;;;;29.38;20.48;;;;;;;;;;5073393;28;20039;-70
2023/04/17 02:48:16;;;;;;;34.88;21.35;;;;;;;;;;5098087;28;20586;-68
2023/04/17 02:50:41;;;;;;;28.60;20.27;;;;;;;;;;5093488;28;20097;-68
2023/04/17 02:53:08;;;;;;;32.50;22.17;;;;;;;;;;5091590;28;20027;-68
2023/04/17 02:55:34;;;;;;;32.70;20.88;;;;;;;;;;5101434;28;20023;-68
2023/04/17 02:58:00;;;;;;;29.50;20.27;;;;;;;;;;5092183;28;20047;-68
2023/04/17 03:00:26;;;;;;;33.05;21.02;;;;;;;;;;5093257;28;20016;-68
2023/04/17 03:02:52;;;;;;;31.30;20.58;;;;;;;;;;5093219;28;20059;-69
2023/04/17 03:05:21;;;;;;;31.95;20.60;;;;;;;;;;5094510;28;20024;-68
2023/04/17 03:07:47;;;;;;;34.38;21.30;;;;;;;;;;5092272;28;20024;-68
2023/04/17 03:10:13;;;;;;;30.45;21.25;;;;;;;;;;5087345;28;20032;-68
2023/04/17 03:12:39;;;;;;;34.47;22.50;;;;;;;;;;5092886;28;20733;-67
2023/04/17 03:15:06;;;;;;;33.47;22.10;;;;;;;;;;5092224;28;20069;-69
2023/04/17 03:17:32;;;;;;;29.10;21.23;;;;;;;;;;5100667;28;20035;-68
2023/04/17 03:19:58;;;;;;;33.83;22.88;;;;;;;;;;5087257;28;20029;-68
2023/04/17 03:22:24;;;;;;;28.95;20.73;;;;;;;;;;5099323;28;20051;-68
2023/04/17 03:24:50;;;;;;;27.42;20.48;;;;;;;;;;5092740;28;20024;-70
2023/04/17 03:27:23;;;;;;;30.05;21.15;;;;;;;;;;5091805;28;20031;-68
2023/04/17 03:29:48;;;;;;;34.72;22.33;;;;;;;;;;5092537;28;20034;-68
2023/04/17 03:32:14;;;;;;;29.52;21.02;;;;;;;;;;5090176;28;20477;-68
2023/04/17 03:34:40;;;;;;;34.38;20.05;;;;;;;;;;5092553;28;20016;-68
2023/04/17 03:37:06;;;;;;;31.17;22.08;;;;;;;;;;5090840;28;20028;-68
2023/04/17 03:39:32;;;;;;;29.02;20.45;;;;;;;;;;5093962;28;20036;-67
2023/04/17 03:41:58;;;;;;;31.45;22.15;;;;;;;;;;5073137;28;20020;-68
2023/04/17 03:44:25;;;;;;;29.83;21.35;;;;;;;;;;5088434;28;20032;-68
2023/04/17 03:46:50;;;;;;;32.63;21.55;;;;;;;;;;5084311;28;20012;-70
2023/04/17 03:49:16;;;;;;;32.42;21.08;;;;;;;;;;5091941;28;20077;-68
2023/04/17 03:51:42;;;;;;;31.08;21.98;;;;;;;;;;5091705;28;20388;-68
2023/04/17 03:54:09;;;;;;;32.05;21.92;;;;;;;;;;5073249;28;20032;-68
2023/04/17 03:56:35;;;;;;;33.80;22.08;;;;;;;;;;5099318;28;20020;-68
2023/04/17 03:59:02;;;;;;;32.53;21.27;;;;;;;;;;5094522;28;20035;-68
2023/04/17 04:01:28;;;;;;;32.80;21.63;;;;;;;;;;5100094;28;20019;-68
2023/04/17 04:03:54;;;;;;;31.00;21.17;;;;;;;;;;5094526;28;20032;-68
2023/04/17 04:06:21;;;;;;;32.05;21.30;;;;;;;;;;5091793;28;20027;-68
2023/04/17 04:08:48;;;;;;;32.60;21.30;;;;;;;;;;5089790;28;20029;-68
2023/04/17 04:11:14;;;;;;;36.30;22.58;;;;;;;;;;5081602;28;20074;-68
2023/04/17 04:13:40;;;;;;;34.25;21.02;;;;;;;;;;5093614;28;20032;-68
2023/04/17 04:16:06;;;;;;;30.80;21.13;;;;;;;;;;5090826;28;20494;-68
2023/04/17 04:18:32;;;;;;;34.63;21.95;;;;;;;;;;5091483;28;20070;-68
2023/04/17 04:20:58;;;;;;;30.15;21.20;;;;;;;;;;5090656;28;20028;-68
2023/04/17 04:23:26;;;;;;;33.10;20.80;;;;;;;;;;5091804;28;20028;-69
2023/04/17 04:25:55;;;;;;;30.70;20.90;;;;;;;;;;5091253;28;20350;-70
2023/04/17 04:28:22;;;;;;;31.95;22.23;;;;;;;;;;5089909;28;20104;-68
2023/04/17 04:30:49;;;;;;;32.30;21.50;;;;;;;;;;5098642;28;20044;-70
2023/04/17 04:33:19;;;;;;;32.83;21.40;;;;;;;;;;5090958;28;20063;-67
2023/04/17 04:35:46;;;;;;;32.22;21.52;;;;;;;;;;5091572;28;20020;-67
2023/04/17 04:38:12;;;;;;;29.17;19.75;;;;;;;;;;5089840;28;20044;-68
2023/04/17 04:40:42;;;;;;;30.05;21.67;;;;;;;;;;5090003;28;20028;-68
2023/04/17 04:43:08;;;;;;;34.05;21.75;;;;;;;;;;5090432;28;20043;-67
2023/04/17 04:45:34;;;;;;;30.75;19.80;;;;;;;;;;5088481;28;20028;-69
2023/04/17 04:48:00;;;;;;;33.65;21.92;;;;;;;;;;5089738;28;20508;-68
2023/04/17 04:50:26;;;;;;;32.50;22.10;;;;;;;;;;5091338;28;20477;-67
2023/04/17 04:52:52;;;;;;;29.20;19.70;;;;;;;;;;5088502;28;20032;-70
2023/04/17 04:55:18;;;;;;;30.77;20.92;;;;;;;;;;5089296;28;20024;-67
2023/04/17 04:57:44;;;;;;;32.40;21.67;;;;;;;;;;5088891;28;20068;-68
2023/04/17 05:00:12;;;;;;;32.00;21.13;;;;;;;;;;5089415;28;20031;-68
2023/04/17 05:02:38;;;;;;;35.38;20.95;;;;;;;;;;5085526;28;20039;-69
2023/04/17 05:05:05;;;;;;;29.90;21.30;;;;;;;;;;5092586;28;20107;-69
2023/04/17 05:07:31;;;;;;;28.90;20.73;;;;;;;;;;5090706;28;20502;-69
2023/04/17 05:09:57;;;;;;;34.63;22.90;;;;;;;;;;5089870;28;20024;-69
2023/04/17 05:12:23;;;;;;;33.50;21.85;;;;;;;;;;5084836;28;20054;-68
2023/04/17 05:14:48;;;;;;;34.92;21.48;;;;;;;;;;5090376;28;20036;-70
2023/04/17 05:17:14;;;;;;;31.88;20.40;;;;;;;;;;5089208;28;20063;-68
2023/04/17 05:19:41;;;;;;;32.30;19.65;;;;;;;;;;5088297;28;20399;-69
2023/04/17 05:22:07;;;;;;;29.92;20.75;;;;;;;;;;5086219;28;20028;-69
2023/04/17 05:24:33;;;;;;;33.67;22.15;;;;;;;;;;5091138;28;20467;-68
2023/04/17 05:27:00;;;;;;;31.17;19.95;;;;;;;;;;5088511;28;20024;-69
2023/04/17 05:29:26;;;;;;;28.05;19.63;;;;;;;;;;5089678;28;20081;-71
2023/04/17 05:31:52;;;;;;;27.75;19.48;;;;;;;;;;5087253;28;20024;-74
2023/04/17 05:34:18;;;;;;;29.73;20.63;;;;;;;;;;5090013;28;20022;-71
2023/04/17 05:36:45;;;;;;;26.23;19.20;;;;;;;;;;5085572;28;20472;-70
2023/04/17 05:39:11;;;;;;;31.75;19.73;;;;;;;;;;5090339;28;20040;-71
2023/04/17 05:41:37;;;;;;;29.75;20.75;;;;;;;;;;5075354;28;20155;-71
2023/04/17 05:44:03;;;;;;;29.05;20.27;;;;;;;;;;5093633;28;20112;-69
2023/04/17 05:46:29;;;;;;;29.73;19.63;;;;;;;;;;5093422;28;20028;-70
2023/04/17 05:48:55;;;;;;;29.33;19.23;;;;;;;;;;5080182;28;20016;-71
2023/04/17 05:51:21;;;;;;;28.55;19.08;;;;;;;;;;5093576;28;20043;-71
2023/04/17 05:53:47;;;;;;;30.25;19.67;;;;;;;;;;5095097;28;20469;-73
2023/04/17 05:56:13;;;;;;;31.98;20.58;;;;;;;;;;5097693;28;20020;-70
2023/04/17 05:58:39;;;;;;;29.67;19.38;;;;;;;;;;5093383;28;20031;-71
2023/04/17 06:01:05;;;;;;;28.90;20.08;;;;;;;;;;5092361;28;20024;-70
2023/04/17 06:03:34;;;;;;;30.00;21.45;;;;;;;;;;5093600;28;20117;-71
2023/04/17 06:06:00;;;;;;;30.17;19.45;;;;;;;;;;5090682;28;20039;-70
2023/04/17 06:08:26;;;;;;;32.55;20.95;;;;;;;;;;5092905;28;20028;-69
2023/04/17 06:10:54;;;;;;;29.63;20.45;;;;;;;;;;5080679;28;20081;-73
2023/04/17 06:13:21;;;;;;;32.08;20.15;;;;;;;;;;5094826;28;20135;-70
2023/04/17 06:15:47;;;;;;;31.30;19.80;;;;;;;;;;5083879;28;20133;-70
2023/04/17 06:18:14;;;;;;;33.38;21.50;;;;;;;;;;5083887;28;20100;-70
2023/04/17 06:20:40;;;;;;;28.83;20.70;;;;;;;;;;5082530;28;20103;-70
2023/04/17 06:23:06;;;;;;;31.20;20.23;;;;;;;;;;5085334;28;20361;-71
2023/04/17 06:25:33;;;;;;;28.80;19.75;;;;;;;;;;5083811;28;20027;-71
2023/04/17 06:27:59;;;;;;;30.08;20.40;;;;;;;;;;5091301;28;20099;-70
2023/04/17 06:30:25;;;;;;;30.55;20.00;;;;;;;;;;5092513;28;20055;-70
2023/04/17 06:32:51;;;;;;;32.95;21.27;;;;;;;;;;5091730;28;20461;-70
2023/04/17 06:35:17;;;;;;;31.48;21.05;;;;;;;;;;5076913;28;20032;-70
2023/04/17 06:37:43;;;;;;;37.92;22.27;;;;;;;;;;5088302;28;20055;-70
2023/04/17 06:40:11;;;;;;;28.10;19.80;;;;;;;;;;5092615;28;20023;-68
2023/04/17 06:42:37;;;;;;;28.42;19.75;;;;;;;;;;5092442;28;20034;-71
2023/04/17 06:45:03;;;;;;;30.90;19.95;;;;;;;;;;5090866;28;20493;-69
2023/04/17 06:47:29;;;;;;;33.55;21.23;;;;;;;;;;5099955;28;20515;-69
2023/04/17 06:49:58;;;;;;;31.60;21.10;;;;;;;;;;5092014;28;20095;-70
2023/04/17 06:52:25;;;;;;;31.27;19.63;;;;;;;;;;5089619;28;20078;-68
2023/04/17 06:54:51;;;;;;;35.47;20.55;;;;;;;;;;5094871;28;20374;-71
2023/04/17 06:57:17;;;;;;;29.73;19.67;;;;;;;;;;5085823;28;20071;-69
2023/04/17 06:59:43;;;;;;;30.90;20.42;;;;;;;;;;5083848;28;20508;-69
2023/04/17 07:02:10;;;;;;;30.33;20.90;;;;;;;;;;5090259;28;20281;-69
2023/04/17 07:04:35;;;;;;;33.63;20.25;;;;;;;;;;5089869;28;20027;-69
2023/04/17 07:07:01;;;;;;;29.98;19.60;;;;;;;;;;5079407;28;20017;-70
2023/04/17 07:09:27;;;;;;;35.53;21.55;;;;;;;;;;5087729;28;20389;-70
2023/04/17 07:11:53;;;;;;;29.10;20.67;;;;;;;;;;5085662;28;20024;-70
2023/04/17 07:14:21;;;;;;;31.08;20.65;;;;;;;;;;5090123;28;20036;-70
2023/04/17 07:16:47;;;;;;;29.42;20.85;;;;;;;;;;5089423;28;20020;-69
2023/04/17 07:19:13;;;;;;;31.25;20.67;;;;;;;;;;5072674;28;20754;-69
2023/04/17 07:21:39;;;;;;;31.50;20.85;;;;;;;;;;5091234;28;20024;-69
2023/04/17 07:24:05;;;;;;;28.27;20.23;;;;;;;;;;5088568;28;20038;-70
2023/04/17 07:26:31;;;;;;;30.35;19.20;;;;;;;;;;5056707;28;20362;-70
2023/04/17 07:28:57;;;;;;;28.75;19.00;;;;;;;;;;5090162;28;20020;-69
2023/04/17 07:31:23;;;;;;;28.67;18.83;;;;;;;;;;5090363;28;20308;-69
2023/04/17 07:33:50;;;;;;;29.05;20.00;;;;;;;;;;5084934;28;20484;-71
2023/04/17 07:36:15;;;;;;;33.58;20.52;;;;;;;;;;5090430;28;20082;-69
2023/04/17 07:38:41;;;;;;;29.00;18.85;;;;;;;;;;5090540;28;20059;-69
2023/04/17 07:41:07;;;;;;;31.20;19.55;;;;;;;;;;5089990;28;20047;-69
2023/04/17 07:43:33;;;;;;;31.05;20.42;;;;;;;;;;5089863;28;20107;-69
2023/04/17 07:45:59;;;;;;;27.80;19.15;;;;;;;;;;5081114;28;20111;-70
2023/04/17 07:48:26;;;;;;;30.50;19.83;;;;;;;;;;5090608;28;20465;-69
2023/04/17 07:50:52;;;;;;;30.02;18.60;;;;;;;;;;5090640;28;20020;-71
2023/04/17 07:53:19;;;;;;;27.38;18.42;;;;;;;;;;5090683;28;20118;-69
2023/04/17 07:55:45;;;;;;;26.85;19.20;;;;;;;;;;5093567;28;20024;-69
2023/04/17 07:58:11;;;;;;;27.45;18.45;;;;;;;;;;5089406;28;20271;-70
2023/04/17 08:00:38;;;;;;;28.55;18.00;;;;;;;;;;5090204;28;20153;-69
2023/04/17 08:03:04;;;;;;;26.63;18.02;;;;;;;;;;5089135;28;20024;-69
2023/04/17 08:05:30;;;;;;;26.80;18.17;;;;;;;;;;5090826;28;20411;-69
2023/04/17 08:07:58;;;;;;;24.00;16.80;;;;;;;;;;5089126;28;20024;-69
2023/04/17 08:10:25;;;;;;;26.33;18.38;;;;;;;;;;5090497;28;20484;-70
2023/04/17 08:12:51;;;;;;;23.88;16.92;;;;;;;;;;5089757;28;20047;-71
2023/04/17 08:15:17;;;;;;;22.02;16.00;;;;;;;;;;5090167;28;20103;-69
2023/04/17 08:17:43;;;;;;;26.63;17.42;;;;;;;;;;5086349;28;20031;-69
2023/04/17 08:20:10;;;;;;;24.80;17.48;;;;;;;;;;5088158;28;20024;-69
2023/04/17 08:22:40;;;;;;;25.48;17.60;;;;;;;;;;5089984;28;20028;-69
2023/04/17 08:25:08;;;;;;;24.00;16.67;;;;;;;;;;5087494;28;20039;-69
2023/04/17 08:27:35;;;;;;;27.63;17.38;;;;;;;;;;5090089;28;20020;-68
2023/04/17 08:30:01;;;;;;;25.30;17.08;;;;;;;;;;5089983;28;20012;-69
2023/04/17 08:32:27;;;;;;;22.17;15.77;;;;;;;;;;5089496;28;20025;-69
2023/04/17 08:34:53;;;;;;;22.08;16.23;;;;;;;;;;5088639;28;20038;-70
2023/04/17 08:37:19;;;;;;;27.63;16.83;;;;;;;;;;5079331;28;20098;-69
2023/04/17 08:39:45;;;;;;;25.83;17.23;;;;;;;;;;5090204;28;20065;-69
2023/04/17 08:42:11;;;;;;;22.92;16.08;;;;;;;;;;5070705;28;20406;-69
2023/04/17 08:44:37;;;;;;;22.42;15.48;;;;;;;;;;5090244;28;20027;-69
2023/04/17 08:47:03;;;;;;;22.45;16.15;;;;;;;;;;5088484;28;20095;-69
2023/04/17 08:49:30;;;;;;;26.85;15.75;;;;;;;;;;5089862;28;20017;-69
2023/04/17 08:51:56;;;;;;;22.17;14.85;;;;;;;;;;5085132;28;20016;-69
2023/04/17 08:54:22;;;;;;;18.60;14.30;;;;;;;;;;5090299;28;20043;-69
2023/04/17 08:56:49;;;;;;;17.30;13.32;;;;;;;;;;5089529;28;20020;-69
2023/04/17 08:59:16;;;;;;;17.05;12.95;;;;;;;;;;5089125;28;20167;-69
2023/04/17 09:02:01;;;;;;;16.80;11.70;;;;;;;;;;5087554;28;20373;-70
2023/04/17 09:04:34;;;;;;;14.52;11.50;;;;;;;;;;5090194;28;20422;-70
2023/04/17 09:07:00;;;;;;;14.57;10.57;;;;;;;;;;5088764;28;20016;-69
2023/04/17 09:09:45;;;;;;;14.90;11.63;;;;;;;;;;5087875;28;20020;-69
2023/04/17 09:12:11;;;;;;;17.90;12.45;;;;;;;;;;5088564;28;20021;-70
2023/04/17 09:14:37;;;;;;;15.82;10.10;;;;;;;;;;5091171;28;20039;-69
2023/04/17 09:17:03;;;;;;;14.88;10.77;;;;;;;;;;5092439;28;20024;-69
2023/04/17 09:19:30;;;;;;;14.52;10.88;;;;;;;;;;5093085;28;20091;-69
2023/04/17 09:21:56;;;;;;;12.75;9.82;;;;;;;;;;5092372;28;20030;-69
2023/04/17 09:24:36;;;;;;;16.30;10.63;;;;;;;;;;5093475;28;20092;-68
2023/04/17 09:27:34;;;;;;;13.70;10.52;;;;;;;;;;5091311;28;20516;-69
2023/04/17 09:30:01;;;;;;;14.05;10.32;;;;;;;;;;5042769;28;20031;-69
2023/04/17 09:32:28;;;;;;;14.77;10.70;;;;;;;;;;5092884;28;20037;-69
2023/04/17 09:34:55;;;;;;;13.27;9.38;;;;;;;;;;5092301;28;20031;-68
2023/04/17 09:37:21;;;;;;;12.90;8.90;;;;;;;;;;5091871;28;20358;-69
2023/04/17 09:39:58;;;;;;;11.45;8.60;;;;;;;;;;5089426;28;20024;-69
2023/04/17 09:42:25;;;;;;;12.15;8.82;;;;;;;;;;5083988;28;20469;-69
2023/04/17 09:44:51;;;;;;;12.10;9.25;;;;;;;;;;5091650;28;20504;-71
2023/04/17 09:47:17;;;;;;;11.13;9.13;;;;;;;;;;5091996;28;20024;-69
2023/04/17 09:49:54;;;;;;;11.30;9.18;;;;;;;;;;5093695;28;20024;-70
2023/04/17 09:52:22;;;;;;;10.00;8.23;;;;;;;;;;5090006;28;20508;-69
2023/04/17 09:54:50;;;;;;;11.80;8.77;;;;;;;;;;5087206;28;20051;-69
2023/04/17 09:57:16;;;;;;;10.52;8.23;;;;;;;;;;5097689;28;20016;-70
2023/04/17 09:59:48;;;;;;;10.77;8.38;;;;;;;;;;5088901;28;20036;-69
2023/04/17 10:02:18;;;;;;;11.90;8.55;;;;;;;;;;5091785;28;20517;-70
2023/04/17 10:04:45;;;;;;;12.33;8.60;;;;;;;;;;5093016;28;20472;-70
2023/04/17 10:07:15;;;;;;;9.82;8.20;;;;;;;;;;5091866;28;20127;-70
2023/04/17 10:09:41;;;;;;;13.00;8.25;;;;;;;;;;5089689;28;20085;-70
2023/04/17 10:12:10;;;;;;;12.02;8.10;;;;;;;;;;5091932;28;20074;-69
2023/04/17 10:14:38;;;;;;;9.05;7.63;;;;;;;;;;5092879;28;20023;-69
2023/04/17 10:17:24;;;;;;;10.18;7.65;;;;;;;;;;5088632;28;21185;-70
2023/04/17 10:19:50;;;;;;;9.05;6.88;;;;;;;;;;5077732;28;20043;-69
2023/04/17 10:22:19;;;;;;;9.43;8.30;;;;;;;;;;5092155;28;20719;-69
2023/04/17 10:24:47;;;;;;;9.77;7.70;;;;;;;;;;5100120;28;20614;-69
2023/04/17 10:27:28;;;;;;;10.00;7.65;;;;;;;;;;5092016;28;20473;-69
2023/04/17 10:29:54;;;;;;;7.72;6.57;;;;;;;;;;5091022;28;20020;-71
2023/04/17 10:32:23;;;;;;;7.72;6.78;;;;;;;;;;5090253;28;20047;-69
2023/04/17 10:34:49;;;;;;;12.02;7.65;;;;;;;;;;5089061;28;20155;-70
2023/04/17 10:37:15;;;;;;;8.30;7.07;;;;;;;;;;5090820;28;20020;-70
2023/04/17 11:04:32;;;;;;;5.82;4.90;;;12.60;99.90;;;;;;4939102;29;20595;-75
2023/04/17 11:06:59;;;;;;;5.40;4.57;;;12.60;99.90;;;;;;4947725;29;20063;-72
2023/04/17 11:09:27;;;;;;;5.78;5.18;;;12.80;99.90;;;;;;4946396;29;20051;-74
2023/04/17 11:11:53;;;;;;;5.72;4.50;;;12.90;99.90;;;;;;4946549;29;20027;-73
2023/04/17 11:14:21;;;;;;;8.45;4.40;;;13.00;99.90;;;;;;4953741;29;20129;-73
2023/04/17 11:16:49;;;;;;;4.93;3.88;;;13.20;99.90;;;;;;4953248;29;20042;-74
2023/04/17 11:19:23;;;;;;;4.35;3.95;;;13.40;99.90;;;;;;4953571;29;20020;-74
2023/04/17 11:21:53;;;;;;;7.20;3.88;;;13.60;99.90;;;;;;4954080;29;20111;-74
2023/04/17 11:24:36;;;;;;;4.70;3.70;;;13.90;99.90;;;;;;4953628;29;20066;-75
2023/04/17 11:27:02;;;;;;;5.13;4.13;;;14.10;99.90;;;;;;4949974;29;20062;-72
2023/04/17 11:29:28;;;;;;;5.38;4.22;;;14.20;99.90;;;;;;4954138;29;20063;-74
2023/04/17 11:31:55;;;;;;;4.22;3.33;;;14.40;99.90;;;;;;4931930;29;20035;-74
2023/04/17 11:34:21;;;;;;;4.20;3.80;;;14.60;99.90;;;;;;4952713;29;20125;-75
2023/04/17 11:36:51;;;;;;;4.93;4.40;;;15.00;99.90;;;;;;4935321;29;20039;-75
2023/04/17 11:39:17;;;;;;;6.67;4.83;;;;;;;;;;4952903;29;20078;-74
2023/04/17 11:41:44;;;;;;;6.93;3.92;;;15.30;99.90;;;;;;4953029;29;20263;-75
2023/04/17 11:44:12;;;;;;;4.75;4.35;;;15.50;99.90;;;;;;4953245;29;20432;-75
2023/04/17 11:46:38;;;;;;;4.72;4.22;;;15.80;99.90;;;;;;4953041;29;20039;-75
2023/04/17 11:49:04;;;;;;;6.05;4.40;;;15.90;99.90;;;;;;4953101;29;20516;-75
2023/04/17 11:51:30;;;;;;;4.35;3.60;;;16.10;99.90;;;;;;4953260;29;20443;-75
2023/04/17 11:53:56;;;;;;;4.32;3.92;;;16.50;99.90;;;;;;4953831;29;20032;-75
2023/04/17 11:56:27;;;;;;;4.90;4.40;;;16.70;99.90;;;;;;4952214;29;20042;-75
2023/04/17 11:58:55;;;;;;;7.28;4.00;;;16.60;99.90;;;;;;4953525;29;20043;-75
2023/04/17 12:01:25;;;;;;;6.80;4.72;;;16.00;99.90;;;;;;4952128;29;20617;-74
2023/04/17 12:03:55;;;;;;;5.32;4.07;;;15.60;99.90;;;;;;4953294;29;20470;-73
2023/04/17 12:06:21;;;;;;;4.90;4.40;;;15.00;99.90;;;;;;4951958;29;20027;-74
2023/04/17 12:08:54;;;;;;;6.95;4.93;;;14.40;99.90;;;;;;4953571;29;20027;-86
2023/04/17 12:11:28;;;;;;;6.05;4.65;;;14.00;99.90;;;;;;4951549;29;20603;-73
2023/04/17 12:13:54;;;;;;;7.68;4.57;;;13.60;99.90;;;;;;4956404;29;20106;-73
2023/04/17 12:16:23;;;;;;;5.40;4.70;;;13.20;99.90;;;;;;4952105;29;20118;-75
2023/04/17 12:18:49;;;;;;;4.72;4.13;;;12.90;99.90;;;;;;4953834;29;20106;-75
2023/04/17 12:21:14;;;;;;;5.68;4.72;;;12.70;99.90;;;;;;4952823;29;20186;-74
2023/04/17 12:23:40;;;;;;;5.82;4.97;;;12.70;99.90;;;;;;4953359;29;20034;-74
2023/04/17 12:26:07;;;;;;;6.10;4.85;;;12.70;99.90;;;;;;4952196;29;20027;-73
2023/04/17 12:28:32;;;;;;;6.47;4.68;;;12.60;99.90;;;;;;4953551;29;20107;-76
2023/04/17 12:30:58;;;;;;;6.45;4.88;;;12.50;99.90;;;;;;4952717;29;20118;-73
2023/04/17 12:33:24;;;;;;;7.13;5.40;;;12.20;99.90;;;;;;4951589;29;20429;-73
2023/04/17 12:35:50;;;;;;;8.73;5.65;;;12.10;99.90;;;;;;4953179;29;20086;-73
2023/04/17 12:38:16;;;;;;;7.03;5.53;;;12.20;99.90;;;;;;4947326;29;20047;-74
2023/04/17 12:40:42;;;;;;;6.57;5.25;;;12.30;99.90;;;;;;4953780;29;20469;-73
2023/04/17 12:43:12;;;;;;;9.65;5.88;;;12.60;99.90;;;;;;4951899;29;20488;-73
2023/04/17 12:45:38;;;;;;;6.22;5.45;;;12.80;99.90;;;;;;4953227;29;20031;-73
2023/04/17 12:48:05;;;;;;;8.07;5.53;;;13.10;99.90;;;;;;4951924;28;20436;-71
2023/04/17 12:50:31;;;;;;;7.03;5.13;;;13.40;99.90;;;;;;4955754;29;20063;-74
2023/04/17 12:52:57;;;;;;;5.28;4.78;;;13.60;99.90;;;;;;4956459;29;20456;-74
2023/04/17 12:55:24;;;;;;;6.47;5.03;;;13.80;99.90;;;;;;4956216;29;20486;-76
2023/04/17 12:57:51;;;;;;;6.93;5.40;;;14.10;99.90;;;;;;4956424;29;20057;-75
2023/04/17 13:00:17;;;;;;;6.93;5.10;;;14.30;99.90;;;;;;4956297;29;20034;-75
2023/04/17 13:02:42;;;;;;;6.72;5.10;;;14.50;99.90;;;;;;4955696;29;20069;-74
2023/04/17 13:05:08;;;;;;;6.13;4.57;;;14.80;99.90;;;;;;4956137;29;20324;-73
2023/04/17 13:07:34;;;;;;;7.60;5.18;;;14.90;99.90;;;;;;4955824;29;20478;-75
2023/04/17 13:09:59;;;;;;;7.63;5.30;;;14.90;99.90;;;;;;4956662;29;20087;-74
2023/04/17 13:12:25;;;;;;;5.60;4.95;;;14.70;99.90;;;;;;4954799;29;20035;-74
2023/04/17 13:14:51;;;;;;;7.85;5.07;;;14.20;99.90;;;;;;4940096;29;20059;-75
2023/04/17 13:17:17;;;;;;;7.07;4.20;;;13.60;99.90;;;;;;4956994;29;20114;-73
2023/04/17 13:19:43;;;;;;;8.50;5.22;;;13.10;99.90;;;;;;4960425;29;20417;-74
2023/04/17 13:22:09;;;;;;;5.88;5.28;;;12.70;99.90;;;;;;4965366;29;20030;-74
2023/04/17 13:24:35;;;;;;;5.70;4.93;;;12.40;99.90;;;;;;4962687;29;20357;-73
2023/04/17 13:27:02;;;;;;;5.05;4.55;;;12.10;99.90;;;;;;4958869;29;20031;-73
2023/04/17 13:29:28;;;;;;;7.80;5.15;;;11.80;99.90;;;;;;4956604;29;20027;-73
2023/04/17 13:31:53;;;;;;;6.97;4.55;;;11.70;99.90;;;;;;4938836;29;20324;-73
2023/04/17 13:34:19;;;;;;;7.68;5.10;;;11.60;99.90;;;;;;4955993;29;20031;-74
2023/04/17 13:36:46;;;;;;;5.78;4.85;;;11.70;99.90;;;;;;4955805;29;20042;-74
2023/04/17 13:39:12;;;;;;;6.90;5.72;;;11.80;99.90;;;;;;4955681;29;20090;-74
2023/04/17 13:41:37;;;;;;;5.72;4.38;;;11.90;99.90;;;;;;4955441;29;20027;-73
2023/04/17 13:44:03;;;;;;;5.28;4.57;;;12.10;99.90;;;;;;4955680;29;20050;-74
2023/04/17 13:46:31;;;;;;;7.30;4.60;;;12.30;99.90;;;;;;4955269;29;20086;-73
2023/04/17 13:48:56;;;;;;;5.82;4.93;;;12.70;99.90;;;;;;4956316;29;20127;-74
2023/04/17 13:51:22;;;;;;;5.47;4.47;;;13.00;99.90;;;;;;4954489;29;20183;-74
2023/04/17 13:53:47;;;;;;;6.85;4.68;;;13.20;99.90;;;;;;4955843;29;20033;-74
2023/04/17 13:56:13;;;;;;;5.00;4.30;;;13.10;99.90;;;;;;4953182;29;20039;-74
2023/04/17 13:58:39;;;;;;;7.35;5.07;;;12.90;99.90;;;;;;4946157;28;20035;-85
2023/04/17 14:01:06;;;;;;;6.10;4.97;;;12.70;99.90;;;;;;4941248;28;20184;-81
2023/04/17 14:03:31;;;;;;;5.18;4.30;;;12.60;99.90;;;;;;4951710;28;20431;-83
2023/04/17 14:05:57;;;;;;;5.45;4.00;;;12.40;99.90;;;;;;4954333;29;20126;-77
2023/04/17 14:08:23;;;;;;;5.38;4.20;;;12.30;99.90;;;;;;4954190;29;20110;-81
2023/04/17 14:10:48;;;;;;;10.13;4.63;;;12.30;99.90;;;;;;4955278;29;20039;-82
2023/04/17 14:13:15;;;;;;;5.30;4.60;;;12.40;99.90;;;;;;4948765;29;20395;-84
2023/04/17 14:15:40;;;;;;;6.88;4.38;;;12.40;99.90;;;;;;4948936;28;20429;-78
2023/04/17 14:18:08;;;;;;;6.97;5.35;;;12.40;99.90;;;;;;4952954;29;20062;-78